^^
Lockford-Weather Station Historical Data
 
Daily Summary for October 23, 2018 Units:  English    Metric   Both
Daily Weekly Monthly Yearly Custom
  Current: High: Low: Average:
Temperature: 49.6 °F 49.6 °F 25 °F 34.5 °F
Dew Point: 34.6 °F 36.6 °F 23.5 °F 28.6 °F
Humidity: 56% 94% 56% 79%
Wind Speed: 0mph 1.6mph 0mph 0.1mph
Wind Gust: 0mph 3.8mph - -
WindCalm - - ESE
Pressure: 30.04 in 30.05 in 30.00 in -
Precipitation: 0 in      
Historical Graphs
 
 
Tabular Data for October 23, 2018
Time Temperature Dew Point Pressure Wind Wind Speed Wind Gust Humidity Rainfall Rate (Hourly)
00:04 40.6 °F 29.4 °F 30.01 in Calm     64% 0 in
00:09 40.6 °F 29.4 °F 30.01 in Calm     64% 0 in
00:14 35.1 °F 30.4 °F 30.00 in SE 0.7 mph 3.5 mph 83% 0 in
00:18 40.5 °F 29.6 °F 30.01 in Calm     65% 0 in
00:23 40.6 °F 29.8 °F 30.01 in Calm     65% 0 in
00:29 39.9 °F 29.5 °F 30.01 in Calm     66% 0 in
00:34 39.6 °F 29.5 °F 30.01 in Calm   2.3 mph 67% 0 in
00:39 39.7 °F 29.3 °F 30.01 in Calm     66% 0 in
00:43 39.7 °F 29.7 °F 30.01 in Calm     67% 0 in
00:49 39.4 °F 29.3 °F 30.01 in Calm   1.6 mph 67% 0 in
00:54 39.2 °F 29.5 °F 30.01 in Calm     68% 0 in
00:59 39 °F 29.3 °F 30.01 in Calm     68% 0 in
01:04 39 °F 29.3 °F 30.01 in Calm     68% 0 in
01:08 38.3 °F 29.4 °F 30.01 in Calm     70% 0 in
01:13 37.9 °F 29 °F 30.01 in Calm     70% 0 in
01:18 37.8 °F 29.2 °F 30.01 in Calm     71% 0 in
01:23 37.4 °F 28.9 °F 30.01 in Calm     71% 0 in
01:29 32 °F 28.8 °F 30.00 in Calm     88% 0 in
01:33 37 °F 29.2 °F 30.01 in Calm     73% 0 in
01:38 36.9 °F 28.7 °F 30.00 in Calm     72% 0 in
01:43 36.5 °F 28.7 °F 30.01 in Calm     73% 0 in
01:48 32 °F 28.8 °F 30.00 in Calm     88% 0 in
01:54 32 °F 28.8 °F 30.00 in Calm   2.3 mph 88% 0 in
01:58 36.3 °F 29.2 °F 30.01 in Calm     75% 0 in
02:03 36.3 °F 29.2 °F 30.01 in Calm     75% 0 in
02:08 36 °F 28.5 °F 30.01 in Calm     74% 0 in
02:13 36 °F 29.4 °F 30.01 in Calm     77% 0 in
02:19 30 °F 27.7 °F 30.00 in Calm     91% 0 in
02:24 30 °F 27.7 °F 30.00 in Calm     91% 0 in
02:28 36.3 °F 28.8 °F 30.01 in Calm     74% 0 in
02:33 36.1 °F 28.3 °F 30.01 in Calm     73% 0 in
02:39 36.3 °F 28.5 °F 30.01 in Calm     73% 0 in
02:44 36 °F 28.8 °F 30.01 in Calm     75% 0 in
02:49 30 °F 27.7 °F 30.00 in Calm     91% 0 in
02:53 35.6 °F 28.5 °F 30.01 in NE 0.7 mph 3.5 mph 75% 0 in
02:58 35.4 °F 28 °F 30.01 in Calm     74% 0 in
03:04 35.4 °F 28 °F 30.01 in Calm     74% 0 in
03:09 35.8 °F 28 °F 30.01 in Calm     73% 0 in
03:14 35.6 °F 27.8 °F 30.01 in Calm     73% 0 in
03:18 35.4 °F 28 °F 30.01 in Calm     74% 0 in
03:23 34.9 °F 28.1 °F 30.01 in Calm     76% 0 in
03:29 34.7 °F 28.5 °F 30.01 in Calm     78% 0 in
03:33 34.5 °F 28.1 °F 30.00 in Calm     77% 0 in
03:38 30.9 °F 28.3 °F 30.00 in NE 0.7 mph 3.5 mph 90% 0 in
03:42 34.5 °F 28.1 °F 30.00 in Calm     77% 0 in
03:48 34.3 °F 27.9 °F 30.00 in NE 1.6 mph 2.3 mph 77% 0 in
03:53 34.5 °F 28.1 °F 30.00 in Calm     77% 0 in
03:58 34.3 °F 27.9 °F 30.01 in Calm     77% 0 in
04:03 34.2 °F 27.7 °F 30.01 in Calm     77% 0 in
04:08 32 °F 28.8 °F 30.00 in Calm     88% 0 in
04:14 32 °F 28.8 °F 30.00 in Calm     88% 0 in
04:18 33.4 °F 27.9 °F 30.01 in Calm     80% 0 in
04:23 33.4 °F 27.9 °F 30.01 in Calm     80% 0 in
04:28 33.3 °F 27.8 °F 30.01 in NE 0.7 mph 2.3 mph 80% 0 in
04:34 33.1 °F 28.2 °F 30.01 in NE 0.7 mph 2.2 mph 82% 0 in
04:39 32 °F 28.8 °F 30.00 in Calm     88% 0 in
04:43 33.1 °F 27.9 °F 30.00 in NE 1.6 mph 2.3 mph 81% 0 in
04:48 33.3 °F 28.1 °F 30.00 in Calm   1.2 mph 81% 0 in
04:53 33.3 °F 27.8 °F 30.00 in Calm   1.6 mph 80% 0 in
04:59 32 °F 28.8 °F 30.00 in Calm     88% 0 in
05:04 27 °F 25.2 °F 30.00 in Calm     93% 0 in
05:08 32.5 °F 27.7 °F 30.01 in Calm     82% 0 in
05:13 32.5 °F 27.7 °F 30.00 in Calm     82% 0 in
05:18 32.4 °F 27.5 °F 30.00 in Calm     82% 0 in
05:24 32 °F 27.4 °F 30.00 in Calm   1.2 mph 83% 0 in
05:29 27 °F 25.2 °F 30.00 in Calm   3.5 mph 93% 0 in
05:34 27 °F 25.2 °F 30.00 in Calm     93% 0 in
05:38 31.6 °F 27.4 °F 30.01 in Calm     84% 0 in
05:43 31.5 °F 27.2 °F 30.01 in Calm     84% 0 in
05:49 31.1 °F 26.8 °F 30.00 in Calm     84% 0 in
05:54 30.7 °F 27 °F 30.01 in Calm   1.2 mph 86% 0 in
05:59 27 °F 25.2 °F 30.00 in Calm     93% 0 in
06:03 30.2 °F 26.5 °F 30.01 in Calm     86% 0 in
06:09 30.4 °F 26.7 °F 30.01 in Calm     86% 0 in
06:13 30.4 °F 27 °F 30.01 in Calm     87% 0 in
06:18 30.2 °F 26.5 °F 30.01 in Calm     86% 0 in
06:23 30.6 °F 27.2 °F 30.01 in Calm     87% 0 in
06:28 30.6 °F 27.2 °F 30.02 in Calm     87% 0 in
06:33 30.6 °F 27.2 °F 30.02 in Calm     87% 0 in
06:38 30.4 °F 27.5 °F 30.02 in Calm   1.2 mph 89% 0 in
06:43 30 °F 26.9 °F 30.02 in Calm     88% 0 in
06:49 29.8 °F 26.7 °F 30.02 in Calm     88% 0 in
06:54 26.1 °F 24.3 °F 30.00 in Calm     93% 0 in
06:58 29.7 °F 27.1 °F 30.02 in Calm     90% 0 in
07:03 29.5 °F 26.6 °F 30.03 in Calm     89% 0 in
07:08 29.3 °F 26.5 °F 30.03 in Calm     89% 0 in
07:13 25 °F 23.5 °F 30.02 in Calm     94% 0 in
07:19 25 °F 23.5 °F 30.02 in Calm     94% 0 in
07:23 30.7 °F 28.2 °F 30.03 in Calm     90% 0 in
07:28 31.3 °F 28.4 °F 30.03 in Calm     89% 0 in
07:33 31.5 °F 28.3 °F 30.03 in Calm     88% 0 in
07:39 31.6 °F 28.2 °F 30.03 in Calm     87% 0 in
07:44 31.8 °F 28.4 °F 30.03 in Calm     87% 0 in
07:49 25 °F 23.5 °F 30.02 in Calm     94% 0 in
07:53 32.4 °F 28.6 °F 30.03 in Calm     86% 0 in
07:58 33.6 °F 29.9 °F 30.03 in Calm     86% 0 in
08:03 34.3 °F 29.7 °F 30.03 in Calm     83% 0 in
08:09 34.9 °F 29.6 °F 30.03 in Calm     81% 0 in
08:14 34.7 °F 29.2 °F 30.03 in Calm     80% 0 in
08:19 34.7 °F 29.2 °F 30.03 in Calm     80% 0 in
08:23 34.9 °F 29 °F 30.03 in Calm     79% 0 in
08:34 36.1 °F 30.3 °F 30.03 in Calm     79% 0 in
08:39 36.7 °F 30.5 °F 30.03 in Calm     78% 0 in
08:44 37 °F 30.8 °F 30.03 in Calm     78% 0 in
08:48 37.2 °F 31 °F 30.04 in Calm     78% 0 in
08:52 37.4 °F 30.8 °F 30.04 in Calm     77% 0 in
08:57 37.4 °F 30.5 °F 30.04 in Calm   2.3 mph 76% 0 in
09:03 37.6 °F 30 °F 30.04 in NW 1.6 mph 3.1 mph 74% 0 in
09:08 38.1 °F 30.2 °F 30.04 in Calm     73% 0 in
09:13 38.8 °F 30.9 °F 30.04 in East 0.7 mph 2.3 mph 73% 0 in
09:18 39.6 °F 32 °F 30.04 in NNE 1.6 mph 3.8 mph 74% 0 in
09:24 43 °F 36.6 °F 30.03 in Calm   2.3 mph 78% 0 in
09:28 41.9 °F 32.1 °F 30.04 in Calm   2.2 mph 68% 0 in
09:33 43.2 °F 33.3 °F 30.04 in Calm     68% 0 in
09:38 44.6 °F 33.6 °F 30.05 in Calm   2.2 mph 65% 0 in
09:43 46.2 °F 33.1 °F 30.05 in NW 1.6 mph 3.5 mph 60% 0 in
09:48 47.3 °F 33.3 °F 30.04 in Calm   1.6 mph 58% 0 in
09:53 49.6 °F 34.6 °F 30.04 in Calm     56% 0 in
Klamath Falls Weather
Compliments of Weather Underground - 2 mb